Reecon Whale — 9HA2885 — position and weather

sailwx.info

Track history (hours):
 
Tides and Currents Weather Stations Pressure Air Temp Water Temp Dewpoint Dewpoint Depression Visibility Wind Speed Wind Dir Waves Ship Positions

Reecon Whale

Last reported at 2018-Feb-24 18:58 UTC. Time now 2018-Feb-25 08:15 UTC.
Position N 37°36' E 023°54'.

Length 145 m; draft 8.9 m.

Type: Ship (hazmat cat D). MMSI: 256579000.

Date/timePositionNaut miles runAvg speedWind from/ knotsBaromVisibWave heightAir tempDewpointWater temp
2018-Feb-24 18:58N 37°36' E 023°54'612.7
2018-Feb-24 18:30N 37°36' E 023°47'611.7
2018-Feb-24 18:00N 37°40' E 023°42'714.1
2018-Feb-24 17:30N 37°47' E 023°38'714.1
2018-Feb-24 17:01N 37°54' E 023°37'4 7.0
2018-Feb-24 16:28N 37°57' E 023°35'0 0.0
2018-Feb-24 15:58N 37°57' E 023°35'0 0.0
2018-Feb-24 15:28N 37°57' E 023°35'0 0.0
2018-Feb-24 14:58N 37°57' E 023°35'0 0.0
2018-Feb-24 14:28N 37°57' E 023°35'0 0.0
2018-Feb-24 13:58N 37°57' E 023°35'0 0.0
2018-Feb-24 13:28N 37°57' E 023°35'0 0.0
2018-Feb-24 12:58N 37°57' E 023°35'0 0.0
2018-Feb-24 12:28N 37°57' E 023°35'0 0.0
2018-Feb-24 11:58N 37°57' E 023°35'0 0.0
2018-Feb-24 11:28N 37°57' E 023°35'0 0.0
2018-Feb-24 10:58N 37°57' E 023°35'0 0.0
2018-Feb-24 10:28N 37°57' E 023°35'0 0.0
2018-Feb-24 09:58N 37°57' E 023°35'0 0.0
2018-Feb-24 09:28N 37°57' E 023°35'0 0.0
2018-Feb-24 08:58N 37°57' E 023°35'0 0.0
2018-Feb-24 08:28N 37°57' E 023°35'0 0.0
2018-Feb-24 07:58N 37°57' E 023°35'0 0.0
2018-Feb-24 07:28N 37°57' E 023°35'0 0.0
2018-Feb-24 06:58N 37°57' E 023°35'0 0.0
2018-Feb-24 06:28N 37°57' E 023°35'0 0.0
2018-Feb-24 05:58N 37°57' E 023°35'0 0.0
2018-Feb-24 05:28N 37°57' E 023°35'0 0.1
2018-Feb-24 04:58N 37°57' E 023°35'0 0.1
2018-Feb-24 04:28N 37°57' E 023°35'0 0.0
2018-Feb-24 03:58N 37°57' E 023°35'0 0.0
2018-Feb-24 03:28N 37°57' E 023°35'0 0.0
2018-Feb-24 02:58N 37°57' E 023°35'0 0.0
2018-Feb-24 02:28N 37°57' E 023°35'0 0.0
2018-Feb-24 01:58N 37°57' E 023°35'0 0.0
2018-Feb-24 01:28N 37°57' E 023°35'0 0.0
2018-Feb-24 00:58N 37°57' E 023°35'0 0.0
2018-Feb-24 00:28N 37°57' E 023°35'0 0.0
2018-Feb-23 23:58N 37°57' E 023°35'0 0.0
2018-Feb-23 23:28N 37°57' E 023°35'0 0.0
2018-Feb-23 22:58N 37°57' E 023°35'0 0.0
2018-Feb-23 22:28N 37°57' E 023°35'0 0.0
2018-Feb-23 21:58N 37°57' E 023°35'0 0.0
2018-Feb-23 21:28N 37°57' E 023°35'0 0.0
2018-Feb-23 20:58N 37°57' E 023°35'0 0.0
2018-Feb-23 20:28N 37°57' E 023°35'0 0.0
2018-Feb-23 19:58N 37°57' E 023°35'0 0.0
2018-Feb-23 19:28N 37°57' E 023°35'0 0.0
2018-Feb-23 18:58N 37°57' E 023°35'0 0.0
2018-Feb-23 18:28N 37°57' E 023°35'0 0.0
2018-Feb-23 17:58N 37°57' E 023°35'0 0.0
2018-Feb-23 17:28N 37°57' E 023°35'0 0.0
2018-Feb-23 16:58N 37°57' E 023°35'0 0.0
2018-Feb-23 16:28N 37°57' E 023°35'0 0.0
2018-Feb-23 15:58N 37°57' E 023°35'0 0.0
2018-Feb-23 15:28N 37°57' E 023°35'0 0.0
2018-Feb-23 14:58N 37°57' E 023°35'0 0.0
2018-Feb-23 14:28N 37°57' E 023°35'0 0.0
2018-Feb-23 13:58N 37°57' E 023°35'0 0.0
2018-Feb-23 13:28N 37°57' E 023°35'0 0.0
2018-Feb-23 12:55N 37°57' E 023°35'0 0.0
2018-Feb-23 12:28N 37°57' E 023°35'0 0.0
2018-Feb-23 11:58N 37°57' E 023°35'0 0.0
2018-Feb-23 11:28N 37°57' E 023°35'0 0.0
2018-Feb-23 10:58N 37°57' E 023°35'0 0.0
2018-Feb-23 10:28N 37°57' E 023°35'0 0.0
2018-Feb-23 09:58N 37°57' E 023°35'0 0.0
2018-Feb-23 09:28N 37°57' E 023°35'0 0.0
2018-Feb-23 08:58N 37°57' E 023°35'0 0.0
2018-Feb-23 08:30N 37°57' E 023°35'2 4.2
2018-Feb-23 08:00N 37°55' E 023°36'1 2.0
2018-Feb-23 07:30N 37°54' E 023°36'2 3.4
2018-Feb-23 07:00N 37°53' E 023°38'5 9.2
2018-Feb-23 06:30N 37°49' E 023°40'713.8
2018-Feb-23 06:01N 37°43' E 023°44'713.1
2018-Feb-23 05:30N 37°39' E 023°51'913.7
2018-Feb-23 04:53N 37°37' E 024°01'614.2
2018-Feb-23 04:30N 37°38' E 024°08'914.5
2018-Feb-23 03:52N 37°43' E 024°17'814.3
2018-Feb-23 03:18N 37°49' E 024°25'3212.5
2018-Feb-23 00:45N 38°19' E 024°35'414.4
2018-Feb-23 00:30N 38°23' E 024°33'714.1
2018-Feb-23 00:00N 38°29' E 024°29'  
2018-Feb-18 11:16N 37°37' E 023°54'312.2
2018-Feb-18 11:00N 37°37' E 023°51'612.0
2018-Feb-18 10:30N 37°39' E 023°43'612.2
2018-Feb-18 10:00N 37°44' E 023°40'612.3
2018-Feb-18 09:30N 37°50' E 023°37'612.3
2018-Feb-18 09:01N 37°56' E 023°36'2 2.8
2018-Feb-18 08:28N 37°57' E 023°35'0 0.0
2018-Feb-18 07:58N 37°57' E 023°35'0 0.0
2018-Feb-18 07:28N 37°57' E 023°35'0 0.0
2018-Feb-18 06:58N 37°57' E 023°35'0 0.0
2018-Feb-18 06:28N 37°57' E 023°35'0 0.0
2018-Feb-18 05:58N 37°57' E 023°35'0 0.0
2018-Feb-18 05:28N 37°57' E 023°35'0 0.0
2018-Feb-18 04:58N 37°57' E 023°35'0 0.0
2018-Feb-18 04:28N 37°57' E 023°35'0 0.0
2018-Feb-18 03:58N 37°57' E 023°35'0 0.0
2018-Feb-18 03:28N 37°57' E 023°35'0 0.0
2018-Feb-18 02:58N 37°57' E 023°35'0 0.0
2018-Feb-18 02:28N 37°57' E 023°35'0 0.0
2018-Feb-18 01:58N 37°57' E 023°35'0 0.0
2018-Feb-18 01:28N 37°57' E 023°35'0 0.0
2018-Feb-18 00:58N 37°57' E 023°35'0 0.0
2018-Feb-18 00:28N 37°57' E 023°35'0 0.0
2018-Feb-17 23:58N 37°57' E 023°35'0 0.0
2018-Feb-17 23:28N 37°57' E 023°35'0 0.0
2018-Feb-17 22:58N 37°57' E 023°35'0 0.0
2018-Feb-17 22:28N 37°57' E 023°35'0 0.0
2018-Feb-17 21:58N 37°57' E 023°35'0 0.0
2018-Feb-17 21:28N 37°57' E 023°35'1 2.9
2018-Feb-17 21:00N 37°56' E 023°35'2 3.1
2018-Feb-17 20:30N 37°55' E 023°36'0 0.4
2018-Feb-17 19:59N 37°55' E 023°36'0 0.2
2018-Feb-17 19:29N 37°55' E 023°36'1 3.1
2018-Feb-17 19:00N 37°54' E 023°35'2 4.9
2018-Feb-17 18:30N 37°52' E 023°32'0 0.3
2018-Feb-17 18:00N 37°52' E 023°32'0 0.0
2018-Feb-17 17:30N 37°52' E 023°32'0 0.0
2018-Feb-17 17:00N 37°52' E 023°32'0 0.0
2018-Feb-17 16:30N 37°52' E 023°32'0 0.0
2018-Feb-17 16:00N 37°52' E 023°32'0 0.0
2018-Feb-17 15:30N 37°52' E 023°32'0 0.0
2018-Feb-17 15:00N 37°52' E 023°32'0 0.0
2018-Feb-17 14:30N 37°52' E 023°32'0 0.0
2018-Feb-17 14:00N 37°52' E 023°32'0 0.0
2018-Feb-17 13:30N 37°52' E 023°32'0 0.0
2018-Feb-17 13:00N 37°52' E 023°32'0 0.0
2018-Feb-17 12:30N 37°52' E 023°32'0 0.0
2018-Feb-17 12:00N 37°52' E 023°32'0 0.0
2018-Feb-17 11:30N 37°52' E 023°32'0 0.0
2018-Feb-17 11:00N 37°52' E 023°32'0 0.0
2018-Feb-17 10:30N 37°52' E 023°32'0 0.0
2018-Feb-17 10:00N 37°52' E 023°32'0 0.1
2018-Feb-17 09:30N 37°52' E 023°32'0 0.0
2018-Feb-17 09:00N 37°52' E 023°32'0 0.0
2018-Feb-17 08:30N 37°52' E 023°32'0 0.1
2018-Feb-17 08:00N 37°52' E 023°32'0 0.0
2018-Feb-17 07:30N 37°52' E 023°32'0 0.0
2018-Feb-17 07:00N 37°52' E 023°32'0 0.0
2018-Feb-17 06:30N 37°52' E 023°32'0 0.1
2018-Feb-17 06:00N 37°52' E 023°32'0 0.6
2018-Feb-17 05:30N 37°52' E 023°32'4 7.8
2018-Feb-17 05:00N 37°51' E 023°37'510.2
2018-Feb-17 04:30N 37°47' E 023°41'510.1
2018-Feb-17 04:00N 37°43' E 023°44'510.2
2018-Feb-17 03:30N 37°39' E 023°49'510.6
2018-Feb-17 03:00N 37°37' E 023°55'1811.3
2018-Feb-17 01:23N 37°43' E 024°17'  
Track history (hours):
 
Tides and Currents Weather Stations Pressure Air Temp Water Temp Dewpoint Dewpoint Depression Visibility Wind Speed Wind Dir Waves Ship Positions

Reecon Whale

Last reported at 2018-Feb-24 18:58 UTC. Time now 2018-Feb-25 08:15 UTC.
Position N 37°36' E 023°54'.

Length 145 m; draft 8.9 m.

Type: Ship (hazmat cat D). MMSI: 256579000.

Date/timePositionNaut miles runAvg speedWind from/ knotsBaromVisibWave heightAir tempDewpointWater temp
2018-Feb-24 18:58N 37°36' E 023°54'612.7
2018-Feb-24 18:30N 37°36' E 023°47'611.7
2018-Feb-24 18:00N 37°40' E 023°42'714.1
2018-Feb-24 17:30N 37°47' E 023°38'714.1
2018-Feb-24 17:01N 37°54' E 023°37'4 7.0
2018-Feb-24 16:28N 37°57' E 023°35'0 0.0
2018-Feb-24 15:58N 37°57' E 023°35'0 0.0
2018-Feb-24 15:28N 37°57' E 023°35'0 0.0
2018-Feb-24 14:58N 37°57' E 023°35'0 0.0
2018-Feb-24 14:28N 37°57' E 023°35'0 0.0
2018-Feb-24 13:58N 37°57' E 023°35'0 0.0
2018-Feb-24 13:28N 37°57' E 023°35'0 0.0
2018-Feb-24 12:58N 37°57' E 023°35'0 0.0
2018-Feb-24 12:28N 37°57' E 023°35'0 0.0
2018-Feb-24 11:58N 37°57' E 023°35'0 0.0
2018-Feb-24 11:28N 37°57' E 023°35'0 0.0
2018-Feb-24 10:58N 37°57' E 023°35'0 0.0
2018-Feb-24 10:28N 37°57' E 023°35'0 0.0
2018-Feb-24 09:58N 37°57' E 023°35'0 0.0
2018-Feb-24 09:28N 37°57' E 023°35'0 0.0
2018-Feb-24 08:58N 37°57' E 023°35'0 0.0
2018-Feb-24 08:28N 37°57' E 023°35'0 0.0
2018-Feb-24 07:58N 37°57' E 023°35'0 0.0
2018-Feb-24 07:28N 37°57' E 023°35'0 0.0
2018-Feb-24 06:58N 37°57' E 023°35'0 0.0
2018-Feb-24 06:28N 37°57' E 023°35'0 0.0
2018-Feb-24 05:58N 37°57' E 023°35'0 0.0
2018-Feb-24 05:28N 37°57' E 023°35'0 0.1
2018-Feb-24 04:58N 37°57' E 023°35'0 0.1
2018-Feb-24 04:28N 37°57' E 023°35'0 0.0
2018-Feb-24 03:58N 37°57' E 023°35'0 0.0
2018-Feb-24 03:28N 37°57' E 023°35'0 0.0
2018-Feb-24 02:58N 37°57' E 023°35'0 0.0
2018-Feb-24 02:28N 37°57' E 023°35'0 0.0
2018-Feb-24 01:58N 37°57' E 023°35'0 0.0
2018-Feb-24 01:28N 37°57' E 023°35'0 0.0
2018-Feb-24 00:58N 37°57' E 023°35'0 0.0
2018-Feb-24 00:28N 37°57' E 023°35'0 0.0
2018-Feb-23 23:58N 37°57' E 023°35'0 0.0
2018-Feb-23 23:28N 37°57' E 023°35'0 0.0
2018-Feb-23 22:58N 37°57' E 023°35'0 0.0
2018-Feb-23 22:28N 37°57' E 023°35'0 0.0
2018-Feb-23 21:58N 37°57' E 023°35'0 0.0
2018-Feb-23 21:28N 37°57' E 023°35'0 0.0
2018-Feb-23 20:58N 37°57' E 023°35'0 0.0
2018-Feb-23 20:28N 37°57' E 023°35'0 0.0
2018-Feb-23 19:58N 37°57' E 023°35'0 0.0
2018-Feb-23 19:28N 37°57' E 023°35'0 0.0
2018-Feb-23 18:58N 37°57' E 023°35'0 0.0
2018-Feb-23 18:28N 37°57' E 023°35'0 0.0
2018-Feb-23 17:58N 37°57' E 023°35'0 0.0
2018-Feb-23 17:28N 37°57' E 023°35'0 0.0
2018-Feb-23 16:58N 37°57' E 023°35'0 0.0
2018-Feb-23 16:28N 37°57' E 023°35'0 0.0
2018-Feb-23 15:58N 37°57' E 023°35'0 0.0
2018-Feb-23 15:28N 37°57' E 023°35'0 0.0
2018-Feb-23 14:58N 37°57' E 023°35'0 0.0
2018-Feb-23 14:28N 37°57' E 023°35'0 0.0
2018-Feb-23 13:58N 37°57' E 023°35'0 0.0
2018-Feb-23 13:28N 37°57' E 023°35'0 0.0
2018-Feb-23 12:55N 37°57' E 023°35'0 0.0
2018-Feb-23 12:28N 37°57' E 023°35'0 0.0
2018-Feb-23 11:58N 37°57' E 023°35'0 0.0
2018-Feb-23 11:28N 37°57' E 023°35'0 0.0
2018-Feb-23 10:58N 37°57' E 023°35'0 0.0
2018-Feb-23 10:28N 37°57' E 023°35'0 0.0
2018-Feb-23 09:58N 37°57' E 023°35'0 0.0
2018-Feb-23 09:28N 37°57' E 023°35'0 0.0
2018-Feb-23 08:58N 37°57' E 023°35'0 0.0
2018-Feb-23 08:30N 37°57' E 023°35'2 4.2
2018-Feb-23 08:00N 37°55' E 023°36'1 2.0
2018-Feb-23 07:30N 37°54' E 023°36'2 3.4
2018-Feb-23 07:00N 37°53' E 023°38'5 9.2
2018-Feb-23 06:30N 37°49' E 023°40'713.8
2018-Feb-23 06:01N 37°43' E 023°44'713.1
2018-Feb-23 05:30N 37°39' E 023°51'913.7
2018-Feb-23 04:53N 37°37' E 024°01'614.2
2018-Feb-23 04:30N 37°38' E 024°08'914.5
2018-Feb-23 03:52N 37°43' E 024°17'814.3
2018-Feb-23 03:18N 37°49' E 024°25'3212.5
2018-Feb-23 00:45N 38°19' E 024°35'414.4
2018-Feb-23 00:30N 38°23' E 024°33'714.1
2018-Feb-23 00:00N 38°29' E 024°29'  
2018-Feb-18 11:16N 37°37' E 023°54'312.2
2018-Feb-18 11:00N 37°37' E 023°51'612.0
2018-Feb-18 10:30N 37°39' E 023°43'612.2
2018-Feb-18 10:00N 37°44' E 023°40'612.3
2018-Feb-18 09:30N 37°50' E 023°37'612.3
2018-Feb-18 09:01N 37°56' E 023°36'2 2.8
2018-Feb-18 08:28N 37°57' E 023°35'0 0.0
2018-Feb-18 07:58N 37°57' E 023°35'0 0.0
2018-Feb-18 07:28N 37°57' E 023°35'0 0.0
2018-Feb-18 06:58N 37°57' E 023°35'0 0.0
2018-Feb-18 06:28N 37°57' E 023°35'0 0.0
2018-Feb-18 05:58N 37°57' E 023°35'0 0.0
2018-Feb-18 05:28N 37°57' E 023°35'0 0.0
2018-Feb-18 04:58N 37°57' E 023°35'0 0.0
2018-Feb-18 04:28N 37°57' E 023°35'0 0.0
2018-Feb-18 03:58N 37°57' E 023°35'0 0.0
2018-Feb-18 03:28N 37°57' E 023°35'0 0.0
2018-Feb-18 02:58N 37°57' E 023°35'0 0.0
2018-Feb-18 02:28N 37°57' E 023°35'0 0.0
2018-Feb-18 01:58N 37°57' E 023°35'0 0.0
2018-Feb-18 01:28N 37°57' E 023°35'0 0.0
2018-Feb-18 00:58N 37°57' E 023°35'0 0.0
2018-Feb-18 00:28N 37°57' E 023°35'0 0.0
2018-Feb-17 23:58N 37°57' E 023°35'0 0.0
2018-Feb-17 23:28N 37°57' E 023°35'0 0.0
2018-Feb-17 22:58N 37°57' E 023°35'0 0.0
2018-Feb-17 22:28N 37°57' E 023°35'0 0.0
2018-Feb-17 21:58N 37°57' E 023°35'0 0.0
2018-Feb-17 21:28N 37°57' E 023°35'1 2.9
2018-Feb-17 21:00N 37°56' E 023°35'2 3.1
2018-Feb-17 20:30N 37°55' E 023°36'0 0.4
2018-Feb-17 19:59N 37°55' E 023°36'0 0.2
2018-Feb-17 19:29N 37°55' E 023°36'1 3.1
2018-Feb-17 19:00N 37°54' E 023°35'2 4.9
2018-Feb-17 18:30N 37°52' E 023°32'0 0.3
2018-Feb-17 18:00N 37°52' E 023°32'0 0.0
2018-Feb-17 17:30N 37°52' E 023°32'0 0.0
2018-Feb-17 17:00N 37°52' E 023°32'0 0.0
2018-Feb-17 16:30N 37°52' E 023°32'0 0.0
2018-Feb-17 16:00N 37°52' E 023°32'0 0.0
2018-Feb-17 15:30N 37°52' E 023°32'0 0.0
2018-Feb-17 15:00N 37°52' E 023°32'0 0.0
2018-Feb-17 14:30N 37°52' E 023°32'0 0.0
2018-Feb-17 14:00N 37°52' E 023°32'0 0.0
2018-Feb-17 13:30N 37°52' E 023°32'0 0.0
2018-Feb-17 13:00N 37°52' E 023°32'0 0.0
2018-Feb-17 12:30N 37°52' E 023°32'0 0.0
2018-Feb-17 12:00N 37°52' E 023°32'0 0.0
2018-Feb-17 11:30N 37°52' E 023°32'0 0.0
2018-Feb-17 11:00N 37°52' E 023°32'0 0.0
2018-Feb-17 10:30N 37°52' E 023°32'0 0.0
2018-Feb-17 10:00N 37°52' E 023°32'0 0.1
2018-Feb-17 09:30N 37°52' E 023°32'0 0.0
2018-Feb-17 09:00N 37°52' E 023°32'0 0.0
2018-Feb-17 08:30N 37°52' E 023°32'0 0.1
2018-Feb-17 08:00N 37°52' E 023°32'0 0.0
2018-Feb-17 07:30N 37°52' E 023°32'0 0.0
2018-Feb-17 07:00N 37°52' E 023°32'0 0.0
2018-Feb-17 06:30N 37°52' E 023°32'0 0.1
2018-Feb-17 06:00N 37°52' E 023°32'0 0.6
2018-Feb-17 05:30N 37°52' E 023°32'4 7.8
2018-Feb-17 05:00N 37°51' E 023°37'510.2
2018-Feb-17 04:30N 37°47' E 023°41'510.1
2018-Feb-17 04:00N 37°43' E 023°44'510.2
2018-Feb-17 03:30N 37°39' E 023°49'510.6
2018-Feb-17 03:00N 37°37' E 023°55'1811.3
2018-Feb-17 01:23N 37°43' E 024°17'  

Dump ship's entire track history